sensor_id;sensor_type;location;lat;lon;timestamp;temperature;humidity
439;DHT22;206;48.782;9.252;2024-03-25T00:01:51;8.00;45.00
439;DHT22;206;48.782;9.252;2024-03-25T00:04:17;8.10;44.60
439;DHT22;206;48.782;9.252;2024-03-25T00:06:42;8.10;44.70
439;DHT22;206;48.782;9.252;2024-03-25T00:09:08;8.10;44.80
439;DHT22;206;48.782;9.252;2024-03-25T00:11:40;8.10;44.20
439;DHT22;206;48.782;9.252;2024-03-25T00:14:05;8.20;44.20
439;DHT22;206;48.782;9.252;2024-03-25T00:16:31;8.20;43.20
439;DHT22;206;48.782;9.252;2024-03-25T00:18:56;8.20;43.20
439;DHT22;206;48.782;9.252;2024-03-25T00:21:22;8.20;42.70
439;DHT22;206;48.782;9.252;2024-03-25T00:23:47;8.10;43.20
439;DHT22;206;48.782;9.252;2024-03-25T00:26:13;8.20;42.70
439;DHT22;206;48.782;9.252;2024-03-25T00:28:39;8.10;42.60
439;DHT22;206;48.782;9.252;2024-03-25T00:31:04;8.20;42.10
439;DHT22;206;48.782;9.252;2024-03-25T00:33:30;8.20;42.10
439;DHT22;206;48.782;9.252;2024-03-25T00:35:55;8.20;42.30
439;DHT22;206;48.782;9.252;2024-03-25T00:38:21;8.20;42.60
439;DHT22;206;48.782;9.252;2024-03-25T00:40:46;8.30;43.20
439;DHT22;206;48.782;9.252;2024-03-25T00:43:12;8.30;42.30
439;DHT22;206;48.782;9.252;2024-03-25T00:45:38;8.30;42.30
439;DHT22;206;48.782;9.252;2024-03-25T00:48:04;8.30;41.90
439;DHT22;206;48.782;9.252;2024-03-25T00:50:29;8.30;41.70
439;DHT22;206;48.782;9.252;2024-03-25T00:52:56;8.30;41.40
439;DHT22;206;48.782;9.252;2024-03-25T00:55:22;8.30;40.80
439;DHT22;206;48.782;9.252;2024-03-25T00:57:47;8.20;41.20
439;DHT22;206;48.782;9.252;2024-03-25T01:00:13;8.20;40.70
439;DHT22;206;48.782;9.252;2024-03-25T01:02:41;8.20;40.60
439;DHT22;206;48.782;9.252;2024-03-25T01:05:07;8.20;41.10
439;DHT22;206;48.782;9.252;2024-03-25T01:07:33;8.20;41.10
439;DHT22;206;48.782;9.252;2024-03-25T01:09:58;8.30;42.00
439;DHT22;206;48.782;9.252;2024-03-25T01:12:25;8.30;41.40
439;DHT22;206;48.782;9.252;2024-03-25T01:14:51;8.30;41.00
439;DHT22;206;48.782;9.252;2024-03-25T01:17:17;8.30;41.50
439;DHT22;206;48.782;9.252;2024-03-25T01:19:42;8.30;41.80
439;DHT22;206;48.782;9.252;2024-03-25T01:22:08;8.20;41.40
439;DHT22;206;48.782;9.252;2024-03-25T01:24:34;8.20;42.10
439;DHT22;206;48.782;9.252;2024-03-25T01:27:00;8.20;41.70
439;DHT22;206;48.782;9.252;2024-03-25T01:29:26;8.10;42.00
439;DHT22;206;48.782;9.252;2024-03-25T01:31:51;8.10;42.20
439;DHT22;206;48.782;9.252;2024-03-25T01:34:17;8.10;41.90
439;DHT22;206;48.782;9.252;2024-03-25T01:36:42;8.10;42.10
439;DHT22;206;48.782;9.252;2024-03-25T01:39:08;8.10;42.70
439;DHT22;206;48.782;9.252;2024-03-25T01:41:34;8.10;42.20
439;DHT22;206;48.782;9.252;2024-03-25T01:44:01;8.00;42.80
439;DHT22;206;48.782;9.252;2024-03-25T01:46:27;8.00;42.40
439;DHT22;206;48.782;9.252;2024-03-25T01:48:53;8.00;42.30
439;DHT22;206;48.782;9.252;2024-03-25T01:51:21;7.90;43.00
439;DHT22;206;48.782;9.252;2024-03-25T01:53:49;7.90;42.30
439;DHT22;206;48.782;9.252;2024-03-25T01:56:15;7.90;42.20
439;DHT22;206;48.782;9.252;2024-03-25T01:58:42;7.90;42.10
439;DHT22;206;48.782;9.252;2024-03-25T02:01:09;7.90;41.90
439;DHT22;206;48.782;9.252;2024-03-25T02:03:39;7.90;42.00
439;DHT22;206;48.782;9.252;2024-03-25T02:06:09;7.90;42.20
439;DHT22;206;48.782;9.252;2024-03-25T02:08:35;7.80;42.80
439;DHT22;206;48.782;9.252;2024-03-25T02:11:01;7.90;42.20
439;DHT22;206;48.782;9.252;2024-03-25T02:13:27;7.90;43.00
439;DHT22;206;48.782;9.252;2024-03-25T02:15:53;7.90;43.00
439;DHT22;206;48.782;9.252;2024-03-25T02:18:20;7.90;42.60
439;DHT22;206;48.782;9.252;2024-03-25T02:20:46;7.90;42.30
439;DHT22;206;48.782;9.252;2024-03-25T02:23:12;7.90;42.70
439;DHT22;206;48.782;9.252;2024-03-25T02:25:40;7.90;41.90
439;DHT22;206;48.782;9.252;2024-03-25T02:28:07;7.90;42.50
439;DHT22;206;48.782;9.252;2024-03-25T02:30:32;7.90;42.50
439;DHT22;206;48.782;9.252;2024-03-25T02:32:58;7.90;42.60
439;DHT22;206;48.782;9.252;2024-03-25T02:35:24;7.90;42.10
439;DHT22;206;48.782;9.252;2024-03-25T02:37:51;8.00;43.00
439;DHT22;206;48.782;9.252;2024-03-25T02:40:18;8.00;42.30
439;DHT22;206;48.782;9.252;2024-03-25T02:42:44;8.00;42.20
439;DHT22;206;48.782;9.252;2024-03-25T02:45:10;8.00;41.90
439;DHT22;206;48.782;9.252;2024-03-25T02:47:35;8.00;42.10
439;DHT22;206;48.782;9.252;2024-03-25T02:50:01;8.00;41.60
439;DHT22;206;48.782;9.252;2024-03-25T02:52:27;8.00;41.70
439;DHT22;206;48.782;9.252;2024-03-25T02:54:52;8.10;42.10
439;DHT22;206;48.782;9.252;2024-03-25T02:57:20;8.10;41.40
439;DHT22;206;48.782;9.252;2024-03-25T02:59:45;8.10;41.90
439;DHT22;206;48.782;9.252;2024-03-25T03:02:11;8.10;41.40
439;DHT22;206;48.782;9.252;2024-03-25T03:04:36;8.10;42.00
439;DHT22;206;48.782;9.252;2024-03-25T03:07:02;8.10;41.40
439;DHT22;206;48.782;9.252;2024-03-25T03:09:28;8.10;41.10
439;DHT22;206;48.782;9.252;2024-03-25T03:11:53;8.10;41.00
439;DHT22;206;48.782;9.252;2024-03-25T03:14:19;8.10;41.30
439;DHT22;206;48.782;9.252;2024-03-25T03:16:44;8.00;41.60
439;DHT22;206;48.782;9.252;2024-03-25T03:19:10;8.00;41.30
439;DHT22;206;48.782;9.252;2024-03-25T03:21:35;8.00;41.60
439;DHT22;206;48.782;9.252;2024-03-25T03:24:02;7.90;41.70
439;DHT22;206;48.782;9.252;2024-03-25T03:26:28;7.90;42.30
439;DHT22;206;48.782;9.252;2024-03-25T03:28:54;7.80;42.60
439;DHT22;206;48.782;9.252;2024-03-25T03:31:20;7.80;42.90
439;DHT22;206;48.782;9.252;2024-03-25T03:33:47;7.80;42.90
439;DHT22;206;48.782;9.252;2024-03-25T03:36:17;7.80;42.90
439;DHT22;206;48.782;9.252;2024-03-25T03:38:43;7.80;43.00
439;DHT22;206;48.782;9.252;2024-03-25T03:41:08;7.70;43.30
439;DHT22;206;48.782;9.252;2024-03-25T03:43:34;7.70;44.00
439;DHT22;206;48.782;9.252;2024-03-25T03:46:00;7.60;44.30
439;DHT22;206;48.782;9.252;2024-03-25T03:48:25;7.50;44.80
439;DHT22;206;48.782;9.252;2024-03-25T03:50:51;7.50;45.30
439;DHT22;206;48.782;9.252;2024-03-25T03:53:17;7.50;45.30
439;DHT22;206;48.782;9.252;2024-03-25T03:55:42;7.40;45.60
439;DHT22;206;48.782;9.252;2024-03-25T03:58:17;7.40;45.90
439;DHT22;206;48.782;9.252;2024-03-25T04:00:43;7.40;46.30
439;DHT22;206;48.782;9.252;2024-03-25T04:03:09;7.40;46.40
439;DHT22;206;48.782;9.252;2024-03-25T04:05:34;7.40;47.40
439;DHT22;206;48.782;9.252;2024-03-25T04:08:00;7.40;47.40
439;DHT22;206;48.782;9.252;2024-03-25T04:10:27;7.40;47.40
439;DHT22;206;48.782;9.252;2024-03-25T04:12:52;7.40;47.40
439;DHT22;206;48.782;9.252;2024-03-25T04:15:18;7.40;46.90
439;DHT22;206;48.782;9.252;2024-03-25T04:17:44;7.40;47.40
439;DHT22;206;48.782;9.252;2024-03-25T04:20:11;7.40;47.00
439;DHT22;206;48.782;9.252;2024-03-25T04:22:40;7.40;47.30
439;DHT22;206;48.782;9.252;2024-03-25T04:25:06;7.40;46.80
439;DHT22;206;48.782;9.252;2024-03-25T04:27:31;7.40;47.00
439;DHT22;206;48.782;9.252;2024-03-25T04:29:57;7.40;46.90
439;DHT22;206;48.782;9.252;2024-03-25T04:32:23;7.40;46.30
439;DHT22;206;48.782;9.252;2024-03-25T04:34:48;7.40;46.90
439;DHT22;206;48.782;9.252;2024-03-25T04:37:14;7.40;46.30
439;DHT22;206;48.782;9.252;2024-03-25T04:39:40;7.40;46.90
439;DHT22;206;48.782;9.252;2024-03-25T04:42:06;7.40;46.70
439;DHT22;206;48.782;9.252;2024-03-25T04:44:31;7.40;46.70
439;DHT22;206;48.782;9.252;2024-03-25T04:46:57;7.40;46.10
439;DHT22;206;48.782;9.252;2024-03-25T04:49:23;7.40;46.10
439;DHT22;206;48.782;9.252;2024-03-25T04:51:48;7.40;45.80
439;DHT22;206;48.782;9.252;2024-03-25T04:54:17;7.40;45.10
439;DHT22;206;48.782;9.252;2024-03-25T04:56:42;7.40;45.40
439;DHT22;206;48.782;9.252;2024-03-25T04:59:09;7.40;45.20
439;DHT22;206;48.782;9.252;2024-03-25T05:01:35;7.40;45.00
439;DHT22;206;48.782;9.252;2024-03-25T05:04:02;7.40;44.90
439;DHT22;206;48.782;9.252;2024-03-25T05:06:27;7.40;44.50
439;DHT22;206;48.782;9.252;2024-03-25T05:08:53;7.40;44.80
439;DHT22;206;48.782;9.252;2024-03-25T05:11:18;7.40;44.70
439;DHT22;206;48.782;9.252;2024-03-25T05:13:44;7.40;44.40
439;DHT22;206;48.782;9.252;2024-03-25T05:16:09;7.40;44.40
439;DHT22;206;48.782;9.252;2024-03-25T05:18:35;7.40;45.00
439;DHT22;206;48.782;9.252;2024-03-25T05:21:01;7.40;44.60
439;DHT22;206;48.782;9.252;2024-03-25T05:23:26;7.40;44.30
439;DHT22;206;48.782;9.252;2024-03-25T05:25:52;7.50;44.80
439;DHT22;206;48.782;9.252;2024-03-25T05:28:17;7.40;44.90
439;DHT22;206;48.782;9.252;2024-03-25T05:30:43;7.50;44.90
439;DHT22;206;48.782;9.252;2024-03-25T05:33:08;7.40;45.40
439;DHT22;206;48.782;9.252;2024-03-25T05:35:34;7.40;45.60
439;DHT22;206;48.782;9.252;2024-03-25T05:38:02;7.40;45.40
439;DHT22;206;48.782;9.252;2024-03-25T05:40:29;7.40;45.30
439;DHT22;206;48.782;9.252;2024-03-25T05:42:54;7.30;45.10
439;DHT22;206;48.782;9.252;2024-03-25T05:45:20;7.30;45.30
439;DHT22;206;48.782;9.252;2024-03-25T05:47:46;7.30;45.20
439;DHT22;206;48.782;9.252;2024-03-25T05:50:11;7.30;45.90
439;DHT22;206;48.782;9.252;2024-03-25T05:52:37;7.30;45.50
439;DHT22;206;48.782;9.252;2024-03-25T05:55:03;7.40;45.30
439;DHT22;206;48.782;9.252;2024-03-25T05:57:29;7.50;45.20
439;DHT22;206;48.782;9.252;2024-03-25T05:59:54;7.50;44.10
439;DHT22;206;48.782;9.252;2024-03-25T06:02:20;7.60;44.10
439;DHT22;206;48.782;9.252;2024-03-25T06:04:45;7.60;43.70
439;DHT22;206;48.782;9.252;2024-03-25T06:07:11;7.60;43.40
439;DHT22;206;48.782;9.252;2024-03-25T06:09:37;7.60;43.40
439;DHT22;206;48.782;9.252;2024-03-25T06:12:03;7.70;43.00
439;DHT22;206;48.782;9.252;2024-03-25T06:14:28;7.60;42.70
439;DHT22;206;48.782;9.252;2024-03-25T06:16:54;7.60;42.70
439;DHT22;206;48.782;9.252;2024-03-25T06:19:19;7.60;43.10
439;DHT22;206;48.782;9.252;2024-03-25T06:21:45;7.60;42.80
439;DHT22;206;48.782;9.252;2024-03-25T06:24:11;7.50;42.60
439;DHT22;206;48.782;9.252;2024-03-25T06:26:36;7.50;42.60
439;DHT22;206;48.782;9.252;2024-03-25T06:29:02;7.50;42.60
439;DHT22;206;48.782;9.252;2024-03-25T06:31:28;7.60;43.40
439;DHT22;206;48.782;9.252;2024-03-25T06:34:12;7.60;42.70
439;DHT22;206;48.782;9.252;2024-03-25T06:36:46;7.70;43.50
439;DHT22;206;48.782;9.252;2024-03-25T06:39:13;7.80;41.90
439;DHT22;206;48.782;9.252;2024-03-25T06:41:39;8.00;42.10
439;DHT22;206;48.782;9.252;2024-03-25T06:44:04;8.30;43.30
439;DHT22;206;48.782;9.252;2024-03-25T06:46:30;8.90;42.10
439;DHT22;206;48.782;9.252;2024-03-25T06:48:56;9.90;37.30
439;DHT22;206;48.782;9.252;2024-03-25T06:51:21;10.90;31.20
439;DHT22;206;48.782;9.252;2024-03-25T06:53:47;11.80;28.60
439;DHT22;206;48.782;9.252;2024-03-25T06:56:13;11.90;25.70
439;DHT22;206;48.782;9.252;2024-03-25T06:58:38;11.30;26.10
439;DHT22;206;48.782;9.252;2024-03-25T07:01:08;11.00;27.10
439;DHT22;206;48.782;9.252;2024-03-25T07:03:34;10.80;27.60
439;DHT22;206;48.782;9.252;2024-03-25T07:06:01;10.50;28.60
439;DHT22;206;48.782;9.252;2024-03-25T07:08:27;10.20;29.60
439;DHT22;206;48.782;9.252;2024-03-25T07:10:53;10.00;30.00
439;DHT22;206;48.782;9.252;2024-03-25T07:13:19;10.10;30.00
439;DHT22;206;48.782;9.252;2024-03-25T07:15:45;10.40;29.30
439;DHT22;206;48.782;9.252;2024-03-25T07:18:11;10.80;28.40
439;DHT22;206;48.782;9.252;2024-03-25T07:20:39;11.30;27.60
439;DHT22;206;48.782;9.252;2024-03-25T07:23:05;11.30;26.80
439;DHT22;206;48.782;9.252;2024-03-25T07:25:31;11.10;26.80
439;DHT22;206;48.782;9.252;2024-03-25T07:27:57;11.20;27.30
439;DHT22;206;48.782;9.252;2024-03-25T07:30:22;11.40;26.20
439;DHT22;206;48.782;9.252;2024-03-25T07:32:51;11.80;25.50
439;DHT22;206;48.782;9.252;2024-03-25T07:35:16;11.90;25.40
439;DHT22;206;48.782;9.252;2024-03-25T07:37:45;12.10;24.30
439;DHT22;206;48.782;9.252;2024-03-25T07:40:11;12.30;24.10
439;DHT22;206;48.782;9.252;2024-03-25T07:42:38;12.40;23.60
439;DHT22;206;48.782;9.252;2024-03-25T07:45:04;12.30;23.70
439;DHT22;206;48.782;9.252;2024-03-25T07:47:33;12.50;23.10
439;DHT22;206;48.782;9.252;2024-03-25T07:49:59;12.30;23.90
439;DHT22;206;48.782;9.252;2024-03-25T07:52:25;12.20;23.80
439;DHT22;206;48.782;9.252;2024-03-25T07:54:51;12.20;23.80
439;DHT22;206;48.782;9.252;2024-03-25T07:57:20;12.40;23.70
439;DHT22;206;48.782;9.252;2024-03-25T07:59:46;12.60;22.90
439;DHT22;206;48.782;9.252;2024-03-25T08:02:11;12.70;23.00
439;DHT22;206;48.782;9.252;2024-03-25T08:04:37;12.90;22.10
439;DHT22;206;48.782;9.252;2024-03-25T08:07:03;13.00;20.60
439;DHT22;206;48.782;9.252;2024-03-25T08:09:29;13.20;19.70
439;DHT22;206;48.782;9.252;2024-03-25T08:11:54;13.20;19.20
439;DHT22;206;48.782;9.252;2024-03-25T08:14:20;13.40;19.20
439;DHT22;206;48.782;9.252;2024-03-25T08:16:45;13.80;18.20
439;DHT22;206;48.782;9.252;2024-03-25T08:19:11;14.10;17.40
439;DHT22;206;48.782;9.252;2024-03-25T08:21:37;14.30;17.00
439;DHT22;206;48.782;9.252;2024-03-25T08:24:03;14.50;16.00
439;DHT22;206;48.782;9.252;2024-03-25T08:26:29;14.60;15.30
439;DHT22;206;48.782;9.252;2024-03-25T08:28:54;14.70;13.70
439;DHT22;206;48.782;9.252;2024-03-25T08:31:20;14.30;12.30
439;DHT22;206;48.782;9.252;2024-03-25T08:33:45;14.00;12.70
439;DHT22;206;48.782;9.252;2024-03-25T08:36:11;13.90;11.50
439;DHT22;206;48.782;9.252;2024-03-25T08:38:37;13.80;13.30
439;DHT22;206;48.782;9.252;2024-03-25T08:41:02;13.60;13.60
439;DHT22;206;48.782;9.252;2024-03-25T08:43:28;13.50;14.20
439;DHT22;206;48.782;9.252;2024-03-25T08:45:53;13.50;14.40
439;DHT22;206;48.782;9.252;2024-03-25T08:48:19;13.60;12.60
439;DHT22;206;48.782;9.252;2024-03-25T08:50:45;13.50;12.80
439;DHT22;206;48.782;9.252;2024-03-25T08:53:10;13.40;14.10
439;DHT22;206;48.782;9.252;2024-03-25T08:55:36;13.40;11.90
439;DHT22;206;48.782;9.252;2024-03-25T08:58:01;13.20;12.40
439;DHT22;206;48.782;9.252;2024-03-25T09:00:28;13.00;12.40
439;DHT22;206;48.782;9.252;2024-03-25T09:02:54;12.70;12.70
439;DHT22;206;48.782;9.252;2024-03-25T09:05:20;12.50;12.50
439;DHT22;206;48.782;9.252;2024-03-25T09:07:48;12.40;13.40
439;DHT22;206;48.782;9.252;2024-03-25T09:10:17;12.10;14.30
439;DHT22;206;48.782;9.252;2024-03-25T09:13:01;12.00;14.80
439;DHT22;206;48.782;9.252;2024-03-25T09:15:26;11.90;14.70
439;DHT22;206;48.782;9.252;2024-03-25T09:17:52;11.70;15.30
439;DHT22;206;48.782;9.252;2024-03-25T09:20:17;11.70;14.90
439;DHT22;206;48.782;9.252;2024-03-25T09:22:49;11.80;15.50
439;DHT22;206;48.782;9.252;2024-03-25T09:25:15;11.90;15.70
439;DHT22;206;48.782;9.252;2024-03-25T09:27:45;12.00;15.10
439;DHT22;206;48.782;9.252;2024-03-25T09:30:10;12.20;14.50
439;DHT22;206;48.782;9.252;2024-03-25T09:32:36;12.30;13.50
439;DHT22;206;48.782;9.252;2024-03-25T09:35:03;12.30;13.70
439;DHT22;206;48.782;9.252;2024-03-25T09:37:29;12.20;14.50
439;DHT22;206;48.782;9.252;2024-03-25T09:39:55;12.40;14.10
439;DHT22;206;48.782;9.252;2024-03-25T09:45:09;12.80;13.50
439;DHT22;206;48.782;9.252;2024-03-25T09:47:38;13.00;13.40
439;DHT22;206;48.782;9.252;2024-03-25T09:50:06;13.20;12.90
439;DHT22;206;48.782;9.252;2024-03-25T09:52:33;13.30;12.30
439;DHT22;206;48.782;9.252;2024-03-25T09:54:59;13.30;11.90
439;DHT22;206;48.782;9.252;2024-03-25T09:57:25;13.40;12.30
439;DHT22;206;48.782;9.252;2024-03-25T09:59:51;13.60;12.70
439;DHT22;206;48.782;9.252;2024-03-25T10:02:18;13.60;12.00
439;DHT22;206;48.782;9.252;2024-03-25T10:04:46;13.60;13.00
439;DHT22;206;48.782;9.252;2024-03-25T10:07:21;13.30;13.80
439;DHT22;206;48.782;9.252;2024-03-25T10:09:47;13.20;14.10
439;DHT22;206;48.782;9.252;2024-03-25T10:12:13;13.30;14.60
439;DHT22;206;48.782;9.252;2024-03-25T10:14:40;12.90;14.50
439;DHT22;206;48.782;9.252;2024-03-25T10:17:05;12.80;14.90
439;DHT22;206;48.782;9.252;2024-03-25T10:19:33;12.90;14.30
439;DHT22;206;48.782;9.252;2024-03-25T10:22:06;13.00;14.20
439;DHT22;206;48.782;9.252;2024-03-25T10:24:41;12.60;13.60
439;DHT22;206;48.782;9.252;2024-03-25T10:27:11;12.60;13.50
439;DHT22;206;48.782;9.252;2024-03-25T10:29:37;12.60;13.50
439;DHT22;206;48.782;9.252;2024-03-25T10:32:03;12.70;13.10
439;DHT22;206;48.782;9.252;2024-03-25T10:34:30;13.00;13.00
439;DHT22;206;48.782;9.252;2024-03-25T10:37:00;13.10;12.60
439;DHT22;206;48.782;9.252;2024-03-25T10:39:27;13.00;12.70
439;DHT22;206;48.782;9.252;2024-03-25T10:41:57;13.20;12.60
439;DHT22;206;48.782;9.252;2024-03-25T10:44:26;13.40;11.80
439;DHT22;206;48.782;9.252;2024-03-25T10:47:00;13.60;11.10
439;DHT22;206;48.782;9.252;2024-03-25T10:49:56;13.90;11.30
439;DHT22;206;48.782;9.252;2024-03-25T10:52:19;14.10;11.40
439;DHT22;206;48.782;9.252;2024-03-25T10:54:47;14.40;11.60
439;DHT22;206;48.782;9.252;2024-03-25T10:57:13;14.40;10.60
439;DHT22;206;48.782;9.252;2024-03-25T10:59:42;14.40;10.70
439;DHT22;206;48.782;9.252;2024-03-25T11:02:09;14.60;11.60
439;DHT22;206;48.782;9.252;2024-03-25T11:04:36;14.50;11.20
439;DHT22;206;48.782;9.252;2024-03-25T11:07:15;14.70;11.20
439;DHT22;206;48.782;9.252;2024-03-25T11:09:41;14.50;10.10
439;DHT22;206;48.782;9.252;2024-03-25T11:12:10;14.50;10.20
439;DHT22;206;48.782;9.252;2024-03-25T11:14:37;14.40;10.50
439;DHT22;206;48.782;9.252;2024-03-25T11:17:02;14.70;10.90
439;DHT22;206;48.782;9.252;2024-03-25T11:19:29;14.90;10.20
439;DHT22;206;48.782;9.252;2024-03-25T11:22:07;15.40;10.00
439;DHT22;206;48.782;9.252;2024-03-25T11:24:34;15.70;9.10
439;DHT22;206;48.782;9.252;2024-03-25T11:27:02;16.20;8.60
439;DHT22;206;48.782;9.252;2024-03-25T11:29:28;16.50;8.30
439;DHT22;206;48.782;9.252;2024-03-25T11:31:55;16.90;7.70
439;DHT22;206;48.782;9.252;2024-03-25T11:34:21;17.10;6.60
439;DHT22;206;48.782;9.252;2024-03-25T11:36:47;17.10;6.20
439;DHT22;206;48.782;9.252;2024-03-25T11:39:14;16.60;7.10
439;DHT22;206;48.782;9.252;2024-03-25T11:41:40;16.00;7.20
439;DHT22;206;48.782;9.252;2024-03-25T11:44:07;16.00;7.30
439;DHT22;206;48.782;9.252;2024-03-25T11:46:36;15.30;8.00
439;DHT22;206;48.782;9.252;2024-03-25T11:49:06;15.30;8.10
439;DHT22;206;48.782;9.252;2024-03-25T11:51:33;14.80;9.20
439;DHT22;206;48.782;9.252;2024-03-25T11:53:59;14.50;8.70
439;DHT22;206;48.782;9.252;2024-03-25T11:56:26;14.40;9.30
439;DHT22;206;48.782;9.252;2024-03-25T11:58:51;14.60;9.10
439;DHT22;206;48.782;9.252;2024-03-25T12:01:17;14.40;9.40
439;DHT22;206;48.782;9.252;2024-03-25T12:03:43;14.60;9.70
439;DHT22;206;48.782;9.252;2024-03-25T12:06:08;14.80;9.20
439;DHT22;206;48.782;9.252;2024-03-25T12:08:34;15.00;9.10
439;DHT22;206;48.782;9.252;2024-03-25T12:11:09;15.20;8.50
439;DHT22;206;48.782;9.252;2024-03-25T12:13:44;15.30;8.60
439;DHT22;206;48.782;9.252;2024-03-25T12:16:10;15.50;8.00
439;DHT22;206;48.782;9.252;2024-03-25T12:18:36;15.60;8.10
439;DHT22;206;48.782;9.252;2024-03-25T12:21:05;15.70;8.40
439;DHT22;206;48.782;9.252;2024-03-25T12:23:32;15.70;8.00
439;DHT22;206;48.782;9.252;2024-03-25T12:26:02;15.00;8.00
439;DHT22;206;48.782;9.252;2024-03-25T12:28:28;15.10;8.70
439;DHT22;206;48.782;9.252;2024-03-25T12:30:55;15.10;8.40
439;DHT22;206;48.782;9.252;2024-03-25T12:33:24;15.00;8.80
439;DHT22;206;48.782;9.252;2024-03-25T12:35:50;14.60;8.60
439;DHT22;206;48.782;9.252;2024-03-25T12:38:26;14.10;10.30
439;DHT22;206;48.782;9.252;2024-03-25T12:41:00;13.90;10.10
439;DHT22;206;48.782;9.252;2024-03-25T12:43:30;13.90;9.60
439;DHT22;206;48.782;9.252;2024-03-25T12:45:57;13.80;10.20
439;DHT22;206;48.782;9.252;2024-03-25T12:48:23;13.80;10.00
439;DHT22;206;48.782;9.252;2024-03-25T12:50:48;13.80;9.90
439;DHT22;206;48.782;9.252;2024-03-25T12:53:17;13.80;10.40
439;DHT22;206;48.782;9.252;2024-03-25T12:55:43;13.50;10.70
439;DHT22;206;48.782;9.252;2024-03-25T12:58:08;13.60;10.10
439;DHT22;206;48.782;9.252;2024-03-25T13:00:34;13.50;10.30
439;DHT22;206;48.782;9.252;2024-03-25T13:02:59;13.70;10.20
439;DHT22;206;48.782;9.252;2024-03-25T13:05:27;13.90;10.10
439;DHT22;206;48.782;9.252;2024-03-25T13:07:53;13.90;9.40
439;DHT22;206;48.782;9.252;2024-03-25T13:10:19;13.90;9.50
439;DHT22;206;48.782;9.252;2024-03-25T13:12:45;14.10;8.40
439;DHT22;206;48.782;9.252;2024-03-25T13:15:11;14.50;8.70
439;DHT22;206;48.782;9.252;2024-03-25T13:17:37;14.50;6.20
439;DHT22;206;48.782;9.252;2024-03-25T13:20:02;14.70;5.20
439;DHT22;206;48.782;9.252;2024-03-25T13:22:30;14.90;6.50
439;DHT22;206;48.782;9.252;2024-03-25T13:24:58;14.50;8.20
439;DHT22;206;48.782;9.252;2024-03-25T13:27:24;14.30;9.00
439;DHT22;206;48.782;9.252;2024-03-25T13:29:50;14.30;8.90
439;DHT22;206;48.782;9.252;2024-03-25T13:32:18;14.20;8.90
439;DHT22;206;48.782;9.252;2024-03-25T13:34:44;14.50;8.50
439;DHT22;206;48.782;9.252;2024-03-25T13:37:10;14.70;6.80
439;DHT22;206;48.782;9.252;2024-03-25T13:39:35;14.90;7.30
439;DHT22;206;48.782;9.252;2024-03-25T13:42:01;14.60;8.60
439;DHT22;206;48.782;9.252;2024-03-25T13:44:27;14.90;8.10
439;DHT22;206;48.782;9.252;2024-03-25T13:46:53;15.00;7.90
439;DHT22;206;48.782;9.252;2024-03-25T13:49:19;15.20;7.90
439;DHT22;206;48.782;9.252;2024-03-25T13:51:45;15.00;7.40
439;DHT22;206;48.782;9.252;2024-03-25T13:54:11;14.80;7.50
439;DHT22;206;48.782;9.252;2024-03-25T13:56:37;14.80;6.80
439;DHT22;206;48.782;9.252;2024-03-25T13:59:03;14.70;7.40
439;DHT22;206;48.782;9.252;2024-03-25T14:01:28;14.80;7.20
439;DHT22;206;48.782;9.252;2024-03-25T14:03:54;14.90;7.70
439;DHT22;206;48.782;9.252;2024-03-25T14:06:20;14.80;5.60
439;DHT22;206;48.782;9.252;2024-03-25T14:08:45;14.60;5.10
439;DHT22;206;48.782;9.252;2024-03-25T14:11:11;14.60;5.60
439;DHT22;206;48.782;9.252;2024-03-25T14:13:36;14.80;5.30
439;DHT22;206;48.782;9.252;2024-03-25T14:16:02;15.00;5.10
439;DHT22;206;48.782;9.252;2024-03-25T14:18:28;15.30;5.50
439;DHT22;206;48.782;9.252;2024-03-25T14:20:53;15.50;5.00
439;DHT22;206;48.782;9.252;2024-03-25T14:23:19;15.60;4.80
439;DHT22;206;48.782;9.252;2024-03-25T14:25:44;15.70;5.20
439;DHT22;206;48.782;9.252;2024-03-25T14:28:10;15.80;5.10
439;DHT22;206;48.782;9.252;2024-03-25T14:30:36;16.00;5.00
439;DHT22;206;48.782;9.252;2024-03-25T14:33:02;16.20;4.50
439;DHT22;206;48.782;9.252;2024-03-25T14:35:27;16.10;3.40
439;DHT22;206;48.782;9.252;2024-03-25T14:37:53;15.90;4.00
439;DHT22;206;48.782;9.252;2024-03-25T14:40:19;15.80;3.90
439;DHT22;206;48.782;9.252;2024-03-25T14:42:45;15.90;3.90
439;DHT22;206;48.782;9.252;2024-03-25T14:45:10;15.90;4.00
439;DHT22;206;48.782;9.252;2024-03-25T14:47:36;15.90;3.90
439;DHT22;206;48.782;9.252;2024-03-25T14:50:02;15.90;4.10
439;DHT22;206;48.782;9.252;2024-03-25T14:52:29;15.80;4.80
439;DHT22;206;48.782;9.252;2024-03-25T14:54:54;15.70;4.00
439;DHT22;206;48.782;9.252;2024-03-25T14:57:20;15.70;4.70
439;DHT22;206;48.782;9.252;2024-03-25T14:59:46;15.80;3.90
439;DHT22;206;48.782;9.252;2024-03-25T15:02:11;15.80;3.90
439;DHT22;206;48.782;9.252;2024-03-25T15:04:39;15.70;4.60
439;DHT22;206;48.782;9.252;2024-03-25T15:07:09;15.60;5.10
439;DHT22;206;48.782;9.252;2024-03-25T15:09:35;15.60;3.80
439;DHT22;206;48.782;9.252;2024-03-25T15:12:00;15.50;3.70
439;DHT22;206;48.782;9.252;2024-03-25T15:14:28;15.60;3.80
439;DHT22;206;48.782;9.252;2024-03-25T15:16:59;15.60;3.70
439;DHT22;206;48.782;9.252;2024-03-25T15:19:25;15.50;3.80
439;DHT22;206;48.782;9.252;2024-03-25T15:21:51;15.40;4.10
439;DHT22;206;48.782;9.252;2024-03-25T15:24:16;15.20;4.50
439;DHT22;206;48.782;9.252;2024-03-25T15:26:42;15.00;4.80
439;DHT22;206;48.782;9.252;2024-03-25T15:29:07;14.80;4.20
439;DHT22;206;48.782;9.252;2024-03-25T15:31:33;14.70;5.20
439;DHT22;206;48.782;9.252;2024-03-25T15:33:59;14.70;5.00
439;DHT22;206;48.782;9.252;2024-03-25T15:36:25;14.80;4.80
439;DHT22;206;48.782;9.252;2024-03-25T15:38:52;14.80;4.90
439;DHT22;206;48.782;9.252;2024-03-25T15:41:17;14.50;5.30
439;DHT22;206;48.782;9.252;2024-03-25T15:43:43;14.40;5.90
439;DHT22;206;48.782;9.252;2024-03-25T15:46:09;14.40;5.60
439;DHT22;206;48.782;9.252;2024-03-25T15:48:34;14.30;5.30
439;DHT22;206;48.782;9.252;2024-03-25T15:51:01;14.40;5.10
439;DHT22;206;48.782;9.252;2024-03-25T15:53:27;14.40;5.60
439;DHT22;206;48.782;9.252;2024-03-25T15:55:52;14.30;5.80
439;DHT22;206;48.782;9.252;2024-03-25T15:58:18;14.30;6.00
439;DHT22;206;48.782;9.252;2024-03-25T16:00:44;14.30;5.60
439;DHT22;206;48.782;9.252;2024-03-25T16:03:09;14.30;4.60
439;DHT22;206;48.782;9.252;2024-03-25T16:05:35;14.20;4.80
439;DHT22;206;48.782;9.252;2024-03-25T16:08:01;14.20;4.90
439;DHT22;206;48.782;9.252;2024-03-25T16:10:30;14.20;4.80
439;DHT22;206;48.782;9.252;2024-03-25T16:13:00;14.10;3.40
439;DHT22;206;48.782;9.252;2024-03-25T16:15:28;14.00;2.90
439;DHT22;206;48.782;9.252;2024-03-25T16:17:54;14.00;3.90
439;DHT22;206;48.782;9.252;2024-03-25T16:20:20;14.10;3.90
439;DHT22;206;48.782;9.252;2024-03-25T16:22:49;14.10;3.90
439;DHT22;206;48.782;9.252;2024-03-25T16:25:15;14.00;3.70
439;DHT22;206;48.782;9.252;2024-03-25T16:27:41;14.00;3.20
439;DHT22;206;48.782;9.252;2024-03-25T16:30:07;14.10;3.50
439;DHT22;206;48.782;9.252;2024-03-25T16:32:33;14.10;2.80
439;DHT22;206;48.782;9.252;2024-03-25T16:34:59;13.80;2.50
439;DHT22;206;48.782;9.252;2024-03-25T16:37:25;13.80;2.50
439;DHT22;206;48.782;9.252;2024-03-25T16:39:50;13.70;2.50
439;DHT22;206;48.782;9.252;2024-03-25T16:42:16;13.60;2.90
439;DHT22;206;48.782;9.252;2024-03-25T16:44:41;13.70;3.40